Latest Weather Observations for Mallacoota

IDV60801

Issued at 5:02 am EDT Tuesday 21 February 2017 (issued every 30 minutes, with the page automatically refreshed every 10 minutes)

About weather observations | Map of weather stations | Latest weather observations for VIC | Other Formats
Station Details ID: 084084 Name: MALLACOOTA Lat: -37.60 Lon: 149.73 Height: 22.0 m
Data from the previous 72 hours. | See also: Recent months at Mallacoota
Date/Time
EDT
Temp
°C
App
Temp
°C
Dew
Point
°C
Rel
Hum
%
Delta-T
°C
Wind Press
QNH
hPa
Press
MSL
hPa
Rain since
9am
mm
Dir  Spd
km/h
Gust
km/h
Spd
kts
Gust
kts
21/04:30am 12.5 9.9 7.8 73 2.3 WNW 11 17 6 9 1017.5 1017.4 0.0
21/04:00am 12.5 10.0 8.0 74 2.2 WNW 11 15 6 8 1017.5 1017.4 0.0
21/03:30am 12.1 9.9 8.0 76 2.0 WNW 9 13 5 7 1017.6 1017.5 0.0
21/03:00am 11.3 9.7 7.8 79 1.7 NNW 6 9 3 5 1017.5 1017.4 0.0
21/02:30am 12.2 10.4 8.1 76 2.0 NNW 7 11 4 6 1017.4 1017.3 0.0
21/02:00am 12.6 10.8 8.1 74 2.2 NW 7 11 4 6 1017.3 1017.2 0.0
21/01:30am 13.1 11.0 8.2 72 2.4 NW 9 13 5 7 1017.3 1017.2 0.0
21/01:00am 12.8 11.0 7.9 72 2.4 NW 7 11 4 6 1017.3 1017.2 0.0
21/12:30am 12.8 10.6 7.9 72 2.4 NW 9 13 5 7 1017.1 1017.0 0.0
21/12:00am 13.0 11.2 7.9 71 2.5 WNW 7 13 4 7 1017.0 1016.9 0.0
 
Date/Time
EDT
Temp
°C
App
Temp
°C
Dew
Point
°C
Rel
Hum
%
Delta-T
°C
Wind Press
QNH
hPa
Press
MSL
hPa
Rain since
9am
mm
Dir  Spd
km/h
Gust
km/h
Spd
kts
Gust
kts
20/11:30pm 13.2 11.1 8.1 71 2.5 NW 9 15 5 8 1016.8 1016.7 0.0
20/11:00pm 13.4 11.3 8.3 71 2.5 NW 9 13 5 7 1016.5 1016.4 0.0
20/10:30pm 14.2 12.5 8.4 68 2.9 WNW 7 13 4 7 1016.3 1016.2 0.0
20/10:00pm 14.3 12.6 8.3 67 3.0 WNW 7 17 4 9 1015.9 1015.8 0.0
20/09:30pm 14.1 12.6 8.3 68 2.9 WNW 6 11 3 6 1015.7 1015.6 0.0
20/09:00pm 15.0 13.0 8.5 65 3.3 W 9 17 5 9 1015.1 1015.0 0.0
20/08:30pm 15.5 12.6 8.3 62 3.6 W 13 20 7 11 1014.7 1014.6 0.0
20/08:00pm 16.1 12.9 8.3 60 4.0 WSW 15 28 8 15 1014.1 1014.0 0.0
20/07:30pm 16.6 14.2 8.6 59 4.1 WSW 11 22 6 12 1013.4 1013.3 0.0
20/07:00pm 17.4 14.1 8.0 54 4.8 WSW 15 22 8 12 1012.6 1012.5 0.0
20/06:30pm 18.5 13.8 7.6 49 5.5 WSW 22 37 12 20 1012.1 1012.0 0.0
20/06:00pm 18.8 14.1 7.6 48 5.7 SW 22 43 12 23 1011.5 1011.4 0.0
20/05:30pm 18.8 12.8 6.9 46 6.0 WSW 28 46 15 25 1010.7 1010.6 0.0
20/05:00pm 19.0 13.8 7.4 47 5.9 WSW 24 44 13 24 1010.3 1010.2 0.0
20/04:30pm 19.3 12.9 6.8 44 6.3 WSW 30 54 16 29 1010.1 1010.0 0.0
20/04:08pm 19.1 12.9 6.2 43 6.4 WSW 28 48 15 26 1009.9 1009.8 0.0
20/04:00pm 18.8 13.0 6.3 44 6.2 WSW 26 46 14 25 1009.7 1009.6 0.0
20/03:30pm 19.6 14.3 6.7 43 6.5 W 24 44 13 24 1009.4 1009.3 0.0
20/03:01pm 19.6 13.9 6.7 43 6.5 WSW 26 48 14 26 1009.1 1009.0 0.0
20/03:00pm 19.9 14.1 6.3 41 6.8 WSW 26 44 14 24 1009.1 1009.0 0.0
20/02:44pm 19.9 14.1 6.3 41 6.8 WSW 26 54 14 29 1008.8 1008.7 0.0
20/02:30pm 19.2 13.2 5.3 40 6.8 WSW 26 43 14 23 1008.9 1008.8 0.0
20/02:00pm 19.9 13.8 4.8 37 7.4 W 26 50 14 27 1008.5 1008.4 0.0
20/01:39pm 20.1 13.7 5.4 38 7.2 WSW 28 56 15 30 1008.4 1008.3 0.0
20/01:30pm 20.3 15.2 5.9 39 7.2 WSW 22 46 12 25 1008.4 1008.3 0.0
20/01:18pm 19.4 12.9 4.7 38 7.1 WSW 28 52 15 28 1008.3 1008.2 0.0
20/01:00pm 19.0 14.3 6.2 43 6.4 WSW 20 39 11 21 1008.4 1008.3 0.0
20/12:30pm 18.6 13.5 6.1 44 6.2 WSW 22 44 12 24 1008.4 1008.3 0.0
20/12:00pm 18.5 13.0 5.7 43 6.3 W 24 48 13 26 1008.3 1008.2 0.0
20/11:30am 17.4 12.9 6.3 48 5.5 WSW 19 32 10 17 1008.4 1008.3 0.0
20/11:00am 17.2 11.3 5.8 47 5.6 WSW 26 43 14 23 1008.5 1008.4 0.0
20/10:30am 16.9 12.2 6.1 49 5.3 W 20 41 11 22 1008.3 1008.2 0.0
20/10:00am 16.2 11.1 6.1 51 4.9 WSW 22 43 12 23 1008.1 1008.0 0.0
20/09:30am 15.1 10.9 5.6 53 4.5 W 17 30 9 16 1008.1 1008.0 0.0
20/09:00am 14.1 11.4 7.2 63 3.4 WNW 11 26 6 14 1008.1 1008.0 4.4
20/08:30am 12.8 10.9 7.5 70 2.6 NW 7 11 4 6 1008.2 1008.1 4.4
20/08:00am 10.9 9.1 7.8 81 1.5 NW 7 11 4 6 1007.9 1007.8 4.4
20/07:30am 9.8 8.5 7.7 87 1.0 NW 4 9 2 5 1007.7 1007.6 4.4
20/07:00am 8.4 6.3 6.5 88 0.9 WNW 7 13 4 7 1007.8 1007.7 4.4
20/06:30am 8.2 6.0 6.3 88 0.9 W 7 11 4 6 1007.5 1007.4 4.4
20/06:00am 8.4 6.3 6.7 89 0.8 W 7 13 4 7 1007.3 1007.2 4.4
20/05:30am 8.5 6.5 7.1 91 0.7 W 7 13 4 7 1007.0 1006.9 4.4
20/05:00am 8.7 6.9 7.3 91 0.7 WNW 6 9 3 5 1007.2 1007.1 4.4
20/04:30am 9.3 7.1 7.9 91 0.7 WNW 9 15 5 8 1007.5 1007.4 4.4
20/04:00am 9.5 7.7 7.9 90 0.8 WNW 7 9 4 5 1007.6 1007.5 4.4
20/03:30am 9.6 7.8 7.9 89 0.8 NW 7 13 4 7 1007.6 1007.5 4.4
20/03:00am 10.0 7.4 7.6 85 1.2 WNW 11 15 6 8 1007.4 1007.3 4.2
20/02:30am 10.8 8.4 6.9 77 1.8 WNW 9 15 5 8 1008.0 1007.9 3.0
20/02:00am 11.7 9.7 6.4 70 2.5 W 6 9 3 5 1008.0 1007.9 2.6
20/01:30am 11.8 9.0 6.9 72 2.3 W 11 24 6 13 1008.2 1008.1 2.6
20/01:00am 11.9 8.7 7.0 72 2.4 SW 13 20 7 11 1008.2 1008.1 2.6
20/12:30am 12.3 9.3 7.6 73 2.3 WSW 13 24 7 13 1008.4 1008.3 2.6
20/12:00am 12.4 9.8 9.4 82 1.5 SW 13 24 7 13 1008.3 1008.2 2.6
 
Date/Time
EDT
Temp
°C
App
Temp
°C
Dew
Point
°C
Rel
Hum
%
Delta-T
°C
Wind Press
QNH
hPa
Press
MSL
hPa
Rain since
9am
mm
Dir  Spd
km/h
Gust
km/h
Spd
kts
Gust
kts
19/11:30pm 12.5 10.1 10.0 85 1.3 WSW 13 22 7 12 1008.3 1008.2 2.6
19/11:00pm 12.7 10.2 10.9 89 0.9 WSW 15 26 8 14 1008.3 1008.2 2.6
19/10:30pm 12.8 11.1 11.2 90 0.8 SW 11 15 6 8 1008.4 1008.3 2.4
19/10:00pm 12.9 10.3 10.8 87 1.1 SW 15 22 8 12 1008.3 1008.2 2.0
19/09:30pm 13.2 10.1 10.4 83 1.5 SW 17 28 9 15 1008.4 1008.3 1.6
19/09:00pm 13.5 10.3 10.1 80 1.8 SW 17 26 9 14 1008.6 1008.5 1.6
19/08:30pm 14.7 13.5 12.9 89 1.0 WNW 11 15 6 8 1007.8 1007.7 1.6
19/08:00pm 15.0 14.2 13.0 88 1.1 NNW 9 11 5 6 1007.0 1006.9 1.6
19/07:30pm 15.9 16.4 12.8 82 1.7 NNW 2 7 1 4 1006.3 1006.2 1.4
19/07:00pm 17.2 15.0 10.8 66 3.4 E 13 20 7 11 1005.9 1005.8 0.0
19/06:30pm 17.4 13.9 11.0 66 3.5 ENE 20 33 11 18 1005.9 1005.8 0.0
19/06:00pm 18.4 16.1 11.9 66 3.6 E 15 22 8 12 1006.3 1006.2 0.0
19/05:30pm 18.5 15.9 12.0 66 3.6 E 17 22 9 12 1006.2 1006.1 0.0
19/05:00pm 18.5 15.8 11.8 65 3.7 E 17 28 9 15 1006.2 1006.1 0.0
19/04:30pm 18.2 15.4 11.3 64 3.8 E 17 24 9 13 1006.3 1006.2 0.0
19/04:00pm 19.7 17.2 11.2 58 4.7 E 15 24 8 13 1006.4 1006.3 0.0
19/03:30pm 20.5 17.8 11.7 57 4.9 E 17 24 9 13 1006.7 1006.6 0.0
19/03:00pm 19.6 16.1 10.3 55 5.0 E 19 26 10 14 1006.8 1006.7 0.0
19/02:30pm 20.3 17.5 10.1 52 5.5 E 15 19 8 10 1007.2 1007.1 0.0
19/02:00pm 19.0 16.6 10.0 56 4.8 E 13 20 7 11 1007.6 1007.5 0.0
19/01:30pm 19.9 17.0 9.8 52 5.4 E 15 20 8 11 1007.7 1007.6 0.0
19/01:00pm 19.8 16.6 8.5 48 5.9 ESE 15 22 8 12 1007.8 1007.7 0.0
19/12:30pm 19.7 17.2 8.4 48 5.9 SE 11 17 6 9 1008.0 1007.9 0.0
19/12:00pm 19.1 16.2 8.1 49 5.7 ESE 13 20 7 11 1008.3 1008.2 0.0
19/11:30am 19.7 16.5 8.4 48 5.9 E 15 22 8 12 1008.6 1008.5 0.0
19/11:00am 19.9 17.9 7.0 43 6.6 N 7 13 4 7 1008.8 1008.7 0.0
19/10:30am 18.3 15.5 6.8 47 5.7 WNW 11 17 6 9 1009.0 1008.9 0.0
19/10:00am 17.7 14.5 6.9 49 5.4 N 13 19 7 10 1009.4 1009.3 0.0
19/09:30am 17.1 15.6 10.5 65 3.5 NNW 9 13 5 7 1009.4 1009.3 0.0
19/09:00am 15.4 14.0 10.8 74 2.4 NW 9 13 5 7 1009.7 1009.6 5.0
19/08:30am 13.2 11.6 10.2 82 1.6 WNW 9 13 5 7 1009.8 1009.7 5.0
19/08:00am 12.3 9.9 9.9 85 1.2 NW 13 17 7 9 1009.7 1009.6 5.0
19/07:30am 11.7 9.1 9.4 86 1.2 NW 13 15 7 8 1009.7 1009.6 5.0
19/07:00am 11.4 9.5 9.1 86 1.2 WNW 9 13 5 7 1009.6 1009.5 5.0
19/06:30am 11.7 9.8 9.1 84 1.3 WNW 9 13 5 7 1009.5 1009.4 5.0
19/06:00am 12.0 10.1 9.0 82 1.5 WNW 9 15 5 8 1009.3 1009.2 5.0
19/05:30am 12.0 10.1 9.2 83 1.4 NW 9 11 5 6 1009.2 1009.1 5.0
19/05:00am 12.3 10.4 9.1 81 1.6 WNW 9 13 5 7 1009.1 1009.0 5.0
19/04:30am 12.2 10.3 9.2 82 1.5 WNW 9 15 5 8 1009.1 1009.0 5.0
19/04:00am 12.4 10.2 9.4 82 1.5 WNW 11 17 6 9 1009.1 1009.0 5.0
19/03:30am 12.5 10.3 9.3 81 1.6 W 11 17 6 9 1009.1 1009.0 5.0
19/03:00am 12.8 10.8 10.0 83 1.4 W 11 19 6 10 1009.3 1009.2 5.0
19/02:30am 12.6 10.6 10.0 84 1.3 W 11 19 6 10 1009.2 1009.1 5.0
19/02:00am 12.8 10.8 10.3 85 1.3 W 11 17 6 9 1009.8 1009.7 5.0
19/01:30am 12.9 11.0 10.6 86 1.2 WNW 11 17 6 9 1010.3 1010.2 5.0
19/01:00am 13.0 11.3 11.1 88 1.0 WNW 11 19 6 10 1010.5 1010.4 5.0
19/12:30am 12.9 11.2 11.1 89 0.9 WNW 11 17 6 9 1010.6 1010.5 5.0
19/12:00am 12.9 11.6 11.1 89 0.9 WNW 9 13 5 7 1010.7 1010.6 5.0
 
Date/Time
EDT
Temp
°C
App
Temp
°C
Dew
Point
°C
Rel
Hum
%
Delta-T
°C
Wind Press
QNH
hPa
Press
MSL
hPa
Rain since
9am
mm
Dir  Spd
km/h
Gust
km/h
Spd
kts
Gust
kts
18/11:30pm 13.2 11.9 11.4 89 1.0 WNW 9 15 5 8 1010.8 1010.7 5.0
18/11:00pm 13.4 12.2 11.6 89 1.0 WNW 9 13 5 7 1010.7 1010.6 5.0
18/10:30pm 13.5 12.4 11.9 90 0.9 W 9 13 5 7 1010.8 1010.7 5.0
18/10:00pm 13.6 12.5 11.8 89 1.0 W 9 15 5 8 1011.2 1011.1 5.0
18/09:30pm 13.7 12.6 12.1 90 0.9 W 9 13 5 7 1011.1 1011.0 5.0
18/09:00pm 13.7 12.6 12.1 90 0.9 W 9 15 5 8 1010.6 1010.5 5.0
18/08:30pm 13.8 12.0 12.2 90 0.9 SW 13 20 7 11 1010.3 1010.2 5.0
18/08:00pm 13.8 12.8 12.4 91 0.8 WSW 9 15 5 8 1009.8 1009.7 4.8
18/07:30pm 13.9 13.0 12.5 91 0.8 WSW 9 15 5 8 1009.6 1009.5 4.8
18/07:00pm 13.9 11.9 12.6 92 0.7 SW 15 24 8 13 1009.4 1009.3 4.8
18/06:30pm 14.1 11.7 12.8 92 0.7 SW 17 28 9 15 1009.0 1008.9 4.8
18/06:00pm 14.7 13.7 13.4 92 0.7 WSW 11 22 6 12 1008.8 1008.7 4.6
18/05:30pm 14.8 13.4 13.5 92 0.7 SW 13 19 7 10 1008.3 1008.2 4.2
18/05:00pm 14.7 12.9 13.4 92 0.7 SW 15 22 8 12 1008.3 1008.2 3.6
18/04:30pm 15.1 13.7 13.5 90 0.9 SW 13 20 7 11 1008.2 1008.1 1.4
18/04:00pm 15.9 14.1 13.2 84 1.5 SW 15 22 8 12 1008.0 1007.9 1.4
18/03:30pm 16.5 14.9 12.8 79 2.1 SSW 13 20 7 11 1008.0 1007.9 1.4
18/03:00pm 16.4 14.2 13.3 82 1.7 SSW 17 26 9 14 1008.1 1008.0 1.4
18/02:30pm 16.7 14.5 14.5 87 1.3 SSW 19 28 10 15 1008.0 1007.9 1.4
18/02:00pm 15.8 12.7 14.5 92 0.7 SSW 24 33 13 18 1008.3 1008.2 1.4
18/01:30pm 16.5 14.2 14.7 89 1.0 SSW 20 33 11 18 1008.4 1008.3 1.4
18/01:00pm 16.7 14.8 15.1 90 0.9 SSW 19 26 10 14 1008.4 1008.3 1.4
18/12:30pm 17.6 16.0 15.9 90 1.0 SSW 19 28 10 15 1008.5 1008.4 1.2
18/12:00pm 17.0 15.0 15.0 88 1.2 SSW 19 26 10 14 1008.6 1008.5 1.2
18/11:30am 18.1 16.4 14.8 81 1.9 S 17 28 9 15 1008.5 1008.4 0.0
18/11:00am 18.3 17.1 15.0 81 1.9 S 15 24 8 13 1008.6 1008.5 0.0
18/10:30am 18.5 16.4 14.8 79 2.2 S 19 32 10 17 1008.6 1008.5 0.0
18/10:00am 19.7 18.5 15.1 75 2.7 S 15 20 8 11 1008.5 1008.4 0.0
18/09:30am 19.3 18.6 14.3 73 2.9 SSW 11 17 6 9 1008.7 1008.6 0.0
18/09:00am 19.4 18.8 14.6 74 2.8 SW 11 17 6 9 1008.4 1008.3 0.2
18/08:30am 18.9 18.6 14.4 75 2.6 WSW 9 13 5 7 1008.2 1008.1 0.2
18/08:00am 17.9 17.6 14.4 80 2.0 WNW 9 13 5 7 1008.1 1008.0 0.2
18/07:30am 17.4 17.4 14.3 82 1.8 WSW 7 11 4 6 1007.7 1007.6 0.2
18/07:00am 17.1 16.7 14.2 83 1.7 WSW 9 15 5 8 1007.8 1007.7 0.2
18/06:30am 17.0 17.0 14.1 83 1.7 WSW 7 9 4 5 1007.8 1007.7 0.2
18/06:00am 16.9 16.9 14.2 84 1.5 W 7 9 4 5 1007.7 1007.6 0.2
18/05:30am 16.7 16.9 14.2 85 1.4 W 6 9 3 5 1007.7 1007.6 0.2

Other Formats:

Comma delimited format used in spreadsheet applications
http://www.bom.gov.au/fwo/IDV60801/IDV60801.94935.axf

JavaScript Object Notation format (JSON) in row-major order
http://www.bom.gov.au/fwo/IDV60801/IDV60801.94935.json